Haileyville, OK

12:03 PM CDT on May 06, 2015 (GMT -0500)
McAlester Regional | | Change Station
CLOSE
Current Station
Airport
Location: McAlester,
Elevation: 768 ft
Nearby Weather Stations

Elev 768 ft 34.88 °N, 95.78 °W | Updated 10 minutes ago

Overcast
Overcast
75 °F
Feels Like 75 °F
N
10
Wind Variable Wind from South
Gusts 18 mph

Today
High -- | Low -- °F
--% Chance of Precip.
Yesterday
High -- | Low -- °F
Precip. -- in
6:26 AM 8:11 PM
Waning Gibbous, 93% visible
Pressure 29.97 in
Visibility 10.0 miles
Clouds Few 2200 ft
Mostly Cloudy 2900 ft
Dew Point 64 °F
Humidity 69%
Rainfall 0.67 in
Snow Depth Not available.
UV 6 out of 12
Pollen 1.90 out of 12
Air Quality Not available.
Flu Activity Local Activity
METAR KMLC 061653Z AUTO 17009G16KT 130V200 10SM FEW022 BKN029 24/18 A2999 RMK AO2 SLP148 T02390178

More Conditions Fewer Conditions

Pressure 29.97 in
Visibility 10.0 miles
Clouds Few 2200 ft
Mostly Cloudy 2900 ft
Dew Point 64 °F
Humidity 69%
Rainfall 0.67 in
Snow Depth Not available.
UV 6 out of 12
Pollen 1.90 out of 12
Air Quality Not available.
Flu Activity Local Activity
METAR KMLC 061653Z AUTO 17009G16KT 130V200 10SM FEW022 BKN029 24/18 A2999 RMK AO2 SLP148 T02390178

More Conditions Fewer Conditions

Nowcast | as of 11:58 am CDT on May 6, 2015

At noon...scattered showers were confined to portions of Craig County in northeast Oklahoma and far northeast Carroll County in Arkansas. The showers were moving north-northeast at 30 miles an hour. Through 130 PM... scattered showers will end in Craig County and Carroll counties. The remainder of northeast Oklahoma and northwest Arkansas will remain rain free.

×

10-Day Weather Forecast

Almanac

Astronomy

May. 06, 2015 Rise Set
Actual Time
Civil Twilight
Nautical Twilight
Astronomical Twilight
Moon
Length of Visible Light
Length of Day
Tomorrow will be .
, % of the Moon is Illuminated

Today's Extremes

State Highs State Lows

Community

WunderPhotos

Upload Photos

1,818,954 photos uploaded!

WunderBlogs® & News

Nearby

Air Quality

  Air Quality AQ Index Pollutant
Not available.

Snow Depth

Station Depth Elevation

Earthquake Activity

City Distance Mag. Time & Date
Minimum magnitude displayed is 2.5.

Coastal Water Temperatures

Place Temperature

Stations

Nearby Weather Stations

Station Location Temp. Windchill Dew Point Humidity Wind Precip. Elev Updated Type